Time;durP1;ratioP1;P1;durP2;ratioP2;P2;SDS_P1;SDS_P2;PMS_P1;PMS_P2;Temp;Humidity;BMP_temperature;BMP_pressure;BME280_temperature;BME280_humidity;BME280_pressure;Samples;Min_cycle;Max_cycle;Signal;HPM_P1;HPM_P2
2023/06/03 00:01:59;;;;;;;11.82;5.80;;;;;;;19.65;64.62;100167.97;5081128;28;20052;-76
2023/06/03 00:04:28;;;;;;;8.32;5.30;;;;;;;19.62;65.27;100161.06;5074708;28;20031;-76
2023/06/03 00:06:54;;;;;;;7.88;5.10;;;;;;;19.59;65.51;100171.47;5079926;28;20048;-76
2023/06/03 00:09:19;;;;;;;10.77;5.80;;;;;;;19.64;65.07;100185.34;5085040;28;20101;-76
2023/06/03 00:11:45;;;;;;;13.32;6.00;;;;;;;19.59;64.72;100188.66;5084258;28;20028;-75
2023/06/03 00:14:10;;;;;;;9.10;5.85;;;;;;;19.54;64.23;100191.09;5087284;28;20482;-76
2023/06/03 00:16:35;;;;;;;12.82;5.65;;;;;;;19.47;63.75;100183.91;5079014;28;20036;-77
2023/06/03 00:19:01;;;;;;;13.40;6.13;;;;;;;19.37;63.42;100183.41;5069689;28;20012;-76
2023/06/03 00:21:30;;;;;;;10.63;5.85;;;;;;;19.41;63.53;100199.16;5079267;28;20103;-77
2023/06/03 00:23:55;;;;;;;13.18;4.93;;;;;;;19.37;63.51;100197.00;5071771;28;20029;-76
2023/06/03 00:26:22;;;;;;;16.67;5.13;;;;;;;19.32;63.67;100203.00;5084760;28;20081;-77
2023/06/03 00:28:48;;;;;;;9.00;5.57;;;;;;;19.22;63.70;100193.47;5076456;28;20040;-77
2023/06/03 00:31:14;;;;;;;13.25;5.43;;;;;;;19.17;63.56;100202.22;5071507;28;20028;-77
2023/06/03 00:33:39;;;;;;;9.07;5.53;;;;;;;19.09;63.56;100188.72;5076854;28;20055;-77
2023/06/03 00:36:05;;;;;;;11.18;6.25;;;;;;;19.09;62.70;100205.03;5083623;28;20021;-77
2023/06/03 00:38:30;;;;;;;11.23;5.43;;;;;;;18.97;62.97;100195.72;5082936;28;20024;-76
2023/06/03 00:40:56;;;;;;;9.50;4.97;;;;;;;18.97;62.46;100200.31;5079960;28;20078;-76
2023/06/03 00:43:21;;;;;;;9.55;5.18;;;;;;;18.86;61.91;100190.75;5085441;28;20115;-76
2023/06/03 00:45:47;;;;;;;15.95;5.90;;;;;;;18.87;61.46;100200.63;5085454;28;20028;-75
2023/06/03 00:48:13;;;;;;;14.77;5.22;;;;;;;18.83;61.37;100198.47;5080508;28;20034;-76
2023/06/03 00:50:39;;;;;;;6.68;5.22;;;;;;;18.81;61.00;100214.97;5084339;28;20028;-76
2023/06/03 00:53:05;;;;;;;11.23;5.45;;;;;;;18.73;60.89;100201.47;5086342;28;20489;-76
2023/06/03 00:55:31;;;;;;;7.38;4.68;;;;;;;18.67;60.84;100206.81;5082723;28;20418;-76
2023/06/03 00:57:57;;;;;;;10.77;5.53;;;;;;;18.61;60.49;100207.59;5086773;28;20020;-77
2023/06/03 01:00:22;;;;;;;9.68;5.85;;;;;;;18.59;60.37;100215.91;5079845;28;20032;-76
2023/06/03 01:02:48;;;;;;;16.40;5.43;;;;;;;18.41;60.12;100195.59;5089928;28;20039;-76
2023/06/03 01:05:14;;;;;;;9.20;5.43;;;;;;;18.46;59.95;100215.75;5084677;28;20025;-77
2023/06/03 01:07:50;;;;;;;9.60;5.55;;;;;;;18.39;59.99;100203.94;5076364;28;20072;-77
2023/06/03 01:10:29;;;;;;;17.35;6.45;;;;;;;18.43;59.84;100221.53;5083681;28;20067;-77
2023/06/03 01:13:24;;;;;;;10.90;5.47;;;;;;;18.41;59.72;100223.59;5081167;28;20028;-77
2023/06/03 01:15:55;;;;;;;16.75;6.07;;;;;;;18.37;59.33;100221.44;5080133;28;20028;-77
2023/06/03 01:18:21;;;;;;;8.73;5.47;;;;;;;18.38;59.27;100232.09;5072156;28;20025;-76
2023/06/03 01:20:48;;;;;;;10.93;5.45;;;;;;;18.32;59.36;100227.41;5078653;28;20027;-76
2023/06/03 01:23:28;;;;;;;9.40;5.13;;;;;;;18.23;59.22;100231.25;5083872;28;20032;-77
2023/06/03 01:25:56;;;;;;;7.18;5.10;;;;;;;18.19;58.99;100231.78;5070172;28;20032;-77
2023/06/03 01:28:23;;;;;;;10.68;5.05;;;;;;;18.13;59.08;100233.38;5071923;28;20111;-77
2023/06/03 01:30:50;;;;;;;10.98;5.28;;;;;;;18.09;59.20;100234.78;5068421;28;20064;-77
2023/06/03 01:33:20;;;;;;;11.10;5.20;;;;;;;18.04;59.23;100232.63;5081979;28;20493;-76
2023/06/03 01:35:48;;;;;;;11.38;5.15;;;;;;;18.02;59.17;100247.38;5077137;28;20471;-77
2023/06/03 01:38:14;;;;;;;11.30;4.88;;;;;;;17.98;58.84;100240.66;5076936;28;20378;-78
2023/06/03 01:40:40;;;;;;;13.95;6.25;;;;;;;17.87;58.92;100230.25;5067631;28;20033;-75
2023/06/03 01:43:06;;;;;;;8.20;5.55;;;;;;;17.93;59.06;100253.94;5082509;28;20387;-75
2023/06/03 01:45:32;;;;;;;9.38;5.70;;;;;;;17.92;58.78;100257.66;5081009;28;20028;-77
2023/06/03 01:47:57;;;;;;;8.73;5.30;;;;;;;17.80;59.02;100242.84;5085880;28;20024;-77
2023/06/03 01:50:23;;;;;;;6.75;4.57;;;;;;;17.82;58.96;100259.78;5081376;28;20545;-77
2023/06/03 01:52:49;;;;;;;6.88;5.30;;;;;;;17.79;59.12;100265.56;5086530;28;20028;-77
2023/06/03 01:55:15;;;;;;;10.02;5.07;;;;;;;17.74;59.13;100260.69;5083570;28;20031;-76
2023/06/03 01:57:41;;;;;;;9.10;5.47;;;;;;;17.70;59.35;100277.50;5084113;28;20085;-77
2023/06/03 02:00:07;;;;;;;9.18;5.35;;;;;;;17.69;59.49;100273.97;5071778;28;20020;-76
2023/06/03 02:02:33;;;;;;;10.35;5.47;;;;;;;17.67;59.55;100270.56;5078568;28;20047;-78
2023/06/03 02:04:58;;;;;;;8.18;4.72;;;;;;;17.65;59.49;100274.50;5083354;28;20036;-78
2023/06/03 02:07:30;;;;;;;12.88;5.63;;;;;;;17.61;59.52;100279.44;5081031;28;20030;-76
2023/06/03 02:09:57;;;;;;;12.23;5.47;;;;;;;17.54;59.80;100277.66;5086299;28;20035;-77
2023/06/03 02:12:23;;;;;;;13.10;5.25;;;;;;;17.46;59.87;100274.97;5082820;28;20036;-67
2023/06/03 02:14:53;;;;;;;11.15;4.85;;;;;;;17.46;59.99;100292.09;5066948;28;20047;-67
2023/06/03 02:17:20;;;;;;;8.98;5.25;;;;;;;17.33;60.03;100269.25;5071909;28;20720;-68
2023/06/03 02:19:46;;;;;;;10.65;5.18;;;;;;;17.43;60.27;100291.59;5076705;28;20032;-67
2023/06/03 02:22:13;;;;;;;8.85;5.78;;;;;;;17.32;60.25;100278.44;5069276;28;20031;-66
2023/06/03 02:24:38;;;;;;;12.52;5.47;;;;;;;17.42;60.15;100300.72;5068655;28;20494;-67
2023/06/03 02:27:04;;;;;;;8.23;5.20;;;;;;;17.32;60.00;100292.00;5068756;28;20028;-66
2023/06/03 02:29:32;;;;;;;8.98;5.93;;;;;;;17.35;60.20;100310.63;5067750;28;20429;-66
2023/06/03 02:31:59;;;;;;;9.45;5.50;;;;;;;17.15;60.01;100284.97;5079170;28;20111;-67
2023/06/03 02:34:25;;;;;;;8.60;4.70;;;;;;;17.11;60.48;100281.75;5085059;28;20058;-68
2023/06/03 02:36:52;;;;;;;11.38;4.80;;;;;;;17.13;60.00;100287.88;5070299;28;20020;-66
2023/06/03 02:39:18;;;;;;;10.50;5.32;;;;;;;17.10;60.27;100299.06;5071719;28;20547;-68
2023/06/03 02:41:45;;;;;;;9.63;5.15;;;;;;;16.98;60.45;100278.78;5077571;28;20066;-67
2023/06/03 02:44:10;;;;;;;8.57;4.90;;;;;;;17.11;60.10;100302.59;5073580;28;20024;-76
2023/06/03 02:46:36;;;;;;;11.23;5.45;;;;;;;17.06;60.05;100307.72;5077662;28;20031;-77
2023/06/03 02:49:06;;;;;;;13.20;5.28;;;;;;;17.05;60.34;100320.41;5076234;28;20081;-76
2023/06/03 02:51:32;;;;;;;8.70;4.65;;;;;;;17.13;60.30;100330.38;5079654;28;20408;-76
2023/06/03 02:53:58;;;;;;;7.72;5.05;;;;;;;17.09;59.90;100329.88;5079779;28;20032;-76
2023/06/03 02:56:23;;;;;;;8.43;4.72;;;;;;;17.10;60.18;100322.59;5074469;28;20032;-78
2023/06/03 02:58:50;;;;;;;7.40;4.43;;;;;;;17.08;59.95;100332.75;5074576;28;20031;-78
2023/06/03 03:01:16;;;;;;;9.00;5.00;;;;;;;17.08;60.12;100341.72;5073602;28;20132;-77
2023/06/03 03:03:41;;;;;;;7.88;4.45;;;;;;;17.06;60.26;100338.34;5084083;28;20434;-77
2023/06/03 03:06:08;;;;;;;8.95;4.70;;;;;;;17.04;60.30;100334.13;5078439;28;20050;-76
2023/06/03 03:08:34;;;;;;;12.10;5.05;;;;;;;17.03;60.51;100332.44;5072096;28;20086;-76
2023/06/03 03:10:59;;;;;;;7.47;4.53;;;;;;;16.99;60.56;100329.22;5076830;28;20033;-76
2023/06/03 03:13:25;;;;;;;7.53;4.53;;;;;;;16.99;60.47;100339.25;5077268;28;20028;-77
2023/06/03 03:15:50;;;;;;;11.60;5.00;;;;;;;16.92;60.55;100338.22;5080081;28;20032;-77
2023/06/03 03:18:16;;;;;;;9.90;4.93;;;;;;;16.90;60.91;100337.56;5079549;28;20035;-76
2023/06/03 03:20:41;;;;;;;11.82;4.68;;;;;;;16.87;61.11;100340.63;5067130;28;20024;-77
2023/06/03 03:23:07;;;;;;;9.25;4.63;;;;;;;16.82;61.22;100346.56;5081054;28;20032;-77
2023/06/03 03:25:34;;;;;;;14.05;4.97;;;;;;;16.86;61.61;100355.22;5066829;28;20032;-76
2023/06/03 03:27:59;;;;;;;10.73;4.88;;;;;;;16.85;61.81;100348.06;5066069;28;20135;-77
2023/06/03 03:30:25;;;;;;;5.93;4.53;;;;;;;16.81;61.50;100357.56;5076867;28;20116;-75
2023/06/03 03:32:51;;;;;;;9.75;4.47;;;;;;;16.87;61.93;100365.00;5072555;28;20032;-77
2023/06/03 03:35:21;;;;;;;9.35;4.93;;;;;;;16.82;62.12;100359.25;5070028;28;20016;-77
2023/06/03 03:37:46;;;;;;;7.55;3.95;;;;;;;16.89;62.28;100362.97;5077615;28;20020;-77
2023/06/03 03:40:22;;;;;;;5.78;3.92;;;;;;;16.84;62.43;100363.50;5070659;28;20471;-78
2023/06/03 03:42:52;;;;;;;8.13;4.53;;;;;;;16.78;62.67;100360.63;5075601;28;20028;-78
2023/06/03 03:45:25;;;;;;;6.95;4.43;;;;;;;16.89;62.49;100379.22;5075610;28;20103;-77
2023/06/03 03:47:52;;;;;;;9.32;4.57;;;;;;;16.92;62.85;100379.72;5065946;28;20043;-77
2023/06/03 03:50:37;;;;;;;6.57;4.03;;;;;;;16.96;62.93;100391.91;5078844;28;20029;-77
2023/06/03 03:53:05;;;;;;;9.23;4.47;;;;;;;16.96;62.63;100396.50;5072312;28;20532;-76
2023/06/03 03:55:30;;;;;;;9.60;4.95;;;;;;;16.93;62.73;100397.66;5068562;28;20344;-77
2023/06/03 03:57:56;;;;;;;6.35;3.85;;;;;;;17.01;62.66;100403.09;5075664;28;20074;-77
2023/06/03 04:00:22;;;;;;;11.23;4.45;;;;;;;17.06;62.92;100403.38;5074179;28;20320;-76
2023/06/03 04:02:51;;;;;;;9.50;4.28;;;;;;;17.11;63.02;100400.16;5073315;28;20110;-77
2023/06/03 04:05:16;;;;;;;7.28;4.40;;;;;;;17.19;63.12;100402.84;5082286;28;20123;-77
2023/06/03 04:07:46;;;;;;;7.63;4.18;;;;;;;17.21;62.74;100401.66;5081382;28;20107;-77
2023/06/03 04:10:12;;;;;;;6.90;4.93;;;;;;;17.25;62.47;100397.56;5082787;28;20383;-75
2023/06/03 04:12:37;;;;;;;10.02;4.10;;;;;;;17.31;62.59;100407.72;5081492;28;20686;-77
2023/06/03 04:15:03;;;;;;;8.52;4.05;;;;;;;17.26;62.20;100398.41;5088162;28;20016;-77
2023/06/03 04:17:30;;;;;;;5.63;3.90;;;;;;;17.39;62.64;100406.84;5076559;28;20036;-77
2023/06/03 04:19:56;;;;;;;9.73;4.13;;;;;;;17.29;62.37;100389.94;5084438;28;20024;-77
2023/06/03 04:22:24;;;;;;;9.63;4.43;;;;;;;17.43;62.27;100406.34;5081394;28;20021;-77
2023/06/03 04:25:07;;;;;;;6.22;3.88;;;;;;;17.39;61.55;100394.13;5073404;28;20028;-76
2023/06/03 04:27:32;;;;;;;11.60;3.97;;;;;;;17.47;61.89;100412.25;5080465;28;20463;-77
2023/06/03 04:29:58;;;;;;;5.05;3.65;;;;;;;17.49;61.85;100412.94;5081792;28;20116;-77
2023/06/03 04:32:23;;;;;;;5.40;3.67;;;;;;;17.51;61.85;100400.88;5078429;28;20048;-76
2023/06/03 04:34:53;;;;;;;6.20;3.70;;;;;;;17.57;62.05;100405.59;5077833;28;20032;-77
2023/06/03 04:37:20;;;;;;;7.82;4.13;;;;;;;17.59;61.84;100397.28;5087582;28;20518;-77
2023/06/03 04:39:46;;;;;;;8.95;3.65;;;;;;;17.68;61.32;100409.78;5078062;28;20056;-76
2023/06/03 04:42:12;;;;;;;5.38;3.95;;;;;;;17.69;61.16;100397.91;5078697;28;20131;-76
2023/06/03 04:44:42;;;;;;;8.43;3.97;;;;;;;17.72;61.30;100409.25;5074659;28;20415;-76
2023/06/03 04:47:11;;;;;;;9.35;3.65;;;;;;;17.57;60.84;100381.19;5076787;28;20442;-77
2023/06/03 04:49:38;;;;;;;8.85;3.80;;;;;;;17.78;60.57;100410.41;5072306;28;20111;-75
2023/06/03 04:52:09;;;;;;;8.75;3.58;;;;;;;17.79;60.59;100402.09;5075820;28;20031;-76
2023/06/03 04:54:35;;;;;;;7.28;3.55;;;;;;;17.83;60.45;100411.53;5079385;28;20593;-76
2023/06/03 04:57:00;;;;;;;6.30;3.47;;;;;;;17.90;60.01;100414.41;5070614;28;20041;-76
2023/06/03 04:59:25;;;;;;;8.60;3.53;;;;;;;17.91;59.95;100414.22;5080553;28;20039;-76
2023/06/03 05:01:51;;;;;;;7.97;3.63;;;;;;;17.93;59.63;100409.44;5082452;28;20409;-77
2023/06/03 05:04:19;;;;;;;7.60;3.40;;;;;;;18.01;58.98;100417.56;5078303;28;20028;-75
2023/06/03 05:06:45;;;;;;;6.93;3.63;;;;;;;18.06;59.07;100419.72;5073857;28;20021;-76
2023/06/03 05:09:11;;;;;;;8.65;3.75;;;;;;;18.08;58.71;100432.09;5080546;28;20032;-77
2023/06/03 05:11:37;;;;;;;6.82;3.30;;;;;;;18.10;58.85;100423.75;5079950;28;20023;-77
2023/06/03 05:14:02;;;;;;;8.65;3.33;;;;;;;18.13;58.64;100430.69;5084046;28;20512;-77
2023/06/03 05:16:28;;;;;;;5.55;3.25;;;;;;;18.17;58.27;100438.31;5076548;28;20223;-76
2023/06/03 05:18:53;;;;;;;7.30;2.80;;;;;;;18.17;57.66;100434.75;5087722;28;20413;-78
2023/06/03 05:21:19;;;;;;;9.73;2.95;;;;;;;18.20;57.55;100443.38;5082143;28;20656;-62
2023/06/03 05:23:45;;;;;;;6.47;3.00;;;;;;;18.25;58.15;100431.97;5079611;28;20038;-65
2023/06/03 05:26:10;;;;;;;4.88;3.17;;;;;;;18.31;58.09;100436.69;5068285;28;20024;-64
2023/06/03 05:28:36;;;;;;;7.05;3.25;;;;;;;18.33;57.83;100443.63;5070051;28;20406;-63
2023/06/03 05:31:01;;;;;;;9.85;2.92;;;;;;;18.34;57.78;100439.88;5072640;28;20073;-63
2023/06/03 05:33:29;;;;;;;8.55;3.25;;;;;;;18.38;57.76;100434.97;5071284;28;20498;-63
2023/06/03 05:35:55;;;;;;;5.50;2.83;;;;;;;18.40;57.04;100439.19;5075108;28;20028;-64
2023/06/03 05:38:20;;;;;;;6.53;2.60;;;;;;;18.49;56.51;100438.09;5078748;28;20517;-64
2023/06/03 05:40:47;;;;;;;6.40;2.97;;;;;;;18.51;55.91;100446.88;5073338;28;20376;-63
2023/06/03 05:43:13;;;;;;;6.50;2.15;;;;;;;18.54;55.96;100445.69;5084389;28;20059;-64
2023/06/03 05:45:38;;;;;;;5.60;2.38;;;;;;;18.57;55.33;100446.16;5069161;28;20116;-63
2023/06/03 05:48:04;;;;;;;7.25;2.80;;;;;;;18.53;54.99;100423.13;5060298;28;20033;-63
2023/06/03 05:50:29;;;;;;;7.28;2.33;;;;;;;18.62;54.93;100438.31;5076257;28;20036;-63
2023/06/03 05:52:55;;;;;;;3.75;2.10;;;;;;;18.68;54.53;100447.59;5065920;28;20085;-62
2023/06/03 05:55:22;;;;;;;7.00;2.42;;;;;;;18.67;53.91;100443.22;5071216;28;20422;-64
2023/06/03 05:57:47;;;;;;;4.15;2.22;;;;;;;18.66;54.52;100431.50;5078834;28;20501;-64
2023/06/03 06:00:13;;;;;;;8.93;2.47;;;;;;;18.79;54.33;100441.72;5068039;28;20025;-63
2023/06/03 06:02:39;;;;;;;2.50;1.83;;;;;;;18.80;54.46;100438.00;5069660;28;20040;-63
2023/06/03 06:05:05;;;;;;;6.07;2.28;;;;;;;18.82;54.11;100434.06;5067007;28;20601;-63
2023/06/03 06:07:31;;;;;;;4.80;2.38;;;;;;;18.94;53.58;100454.31;5063171;28;20024;-64
2023/06/03 06:09:56;;;;;;;11.85;2.75;;;;;;;18.99;53.40;100449.16;5066503;28;20585;-63
2023/06/03 06:12:23;;;;;;;8.63;2.25;;;;;;;19.05;52.88;100448.44;5067766;28;20506;-64
2023/06/03 06:14:48;;;;;;;6.18;2.30;;;;;;;19.11;53.25;100447.69;5073659;28;20279;-64
2023/06/03 06:17:16;;;;;;;4.82;2.17;;;;;;;19.21;51.98;100453.69;5067582;28;20111;-64
2023/06/03 06:19:42;;;;;;;8.63;2.53;;;;;;;19.23;51.78;100464.38;5065208;28;20013;-63
2023/06/03 06:22:08;;;;;;;9.27;2.53;;;;;;;19.15;51.58;100437.28;5072261;28;20358;-63
2023/06/03 06:24:34;;;;;;;23.92;2.50;;;;;;;19.24;50.38;100474.22;5086902;28;20585;-64
2023/06/03 06:26:59;;;;;;;7.55;2.53;;;;;;;19.20;49.68;100468.34;5078345;28;20034;-63
2023/06/03 06:29:26;;;;;;;3.88;2.17;;;;;;;19.23;49.98;100469.81;5087213;28;20216;-64
2023/06/03 06:31:51;;;;;;;7.88;2.45;;;;;;;19.16;50.40;100439.84;5083162;28;20024;-63
2023/06/03 06:34:17;;;;;;;4.25;2.30;;;;;;;19.30;50.58;100457.19;5086201;28;20073;-62
2023/06/03 06:36:49;;;;;;;7.60;2.08;;;;;;;19.37;50.30;100480.75;5064815;28;20344;-63
2023/06/03 06:39:33;;;;;;;9.68;2.40;;;;;;;19.43;49.83;100480.00;5086870;28;20244;-62
2023/06/03 06:42:14;;;;;;;5.70;2.08;;;;;;;19.47;49.31;100470.44;5086869;28;20028;-64
2023/06/03 06:44:50;;;;;;;6.82;2.55;;;;;;;19.53;49.24;100461.50;5065766;28;20032;-64
2023/06/03 06:47:26;;;;;;;5.68;2.30;;;;;;;19.60;48.15;100465.16;5066760;28;20063;-64
2023/06/03 06:49:54;;;;;;;13.77;2.03;;;;;;;19.65;47.40;100480.94;5078633;28;20020;-64
2023/06/03 06:52:21;;;;;;;3.63;1.88;;;;;;;19.68;46.43;100478.69;5086916;28;20118;-64
2023/06/03 06:54:47;;;;;;;8.52;2.40;;;;;;;19.68;46.55;100477.84;5082538;28;20456;-63
2023/06/03 06:57:27;;;;;;;4.97;2.67;;;;;;;19.65;46.34;100459.16;5072617;28;20032;-62
2023/06/03 06:59:53;;;;;;;13.65;3.03;;;;;;;19.79;45.59;100489.09;5079904;28;20430;-62
2023/06/03 07:02:22;;;;;;;7.03;2.35;;;;;;;19.82;45.56;100487.84;5086651;28;20055;-64
2023/06/03 07:04:51;;;;;;;6.10;2.22;;;;;;;19.87;44.88;100483.50;5086496;28;20088;-64
2023/06/03 07:07:17;;;;;;;9.52;2.45;;;;;;;19.79;44.95;100470.03;5086769;28;20028;-64
2023/06/03 07:09:43;;;;;;;4.47;2.20;;;;;;;19.96;44.66;100498.72;5069769;28;20281;-63
2023/06/03 07:12:09;;;;;;;9.85;2.17;;;;;;;20.01;44.66;100498.16;5064747;28;20088;-64
2023/06/03 07:14:35;;;;;;;8.10;2.20;;;;;;;20.08;44.54;100494.47;5073182;28;20028;-62
2023/06/03 07:17:00;;;;;;;9.77;2.33;;;;;;;20.11;43.65;100499.56;5086065;28;20122;-63
2023/06/03 07:19:43;;;;;;;17.20;2.47;;;;;;;20.12;43.03;100512.16;5086630;28;20342;-64
2023/06/03 07:22:09;;;;;;;6.25;2.35;;;;;;;20.07;41.73;100516.44;5066704;28;20031;-63
2023/06/03 07:24:36;;;;;;;8.20;2.10;;;;;;;20.06;42.01;100518.31;5066462;28;20479;-64
2023/06/03 07:27:05;;;;;;;5.90;2.00;;;;;;;20.09;41.96;100525.28;5065719;28;20040;-64
2023/06/03 07:29:36;;;;;;;8.80;1.92;;;;;;;20.13;42.39;100523.91;5066202;28;20119;-64
2023/06/03 07:32:01;;;;;;;3.05;1.88;;;;;;;20.19;42.23;100515.78;5078879;28;20028;-63
2023/06/03 07:34:27;;;;;;;6.68;2.08;;;;;;;20.29;42.60;100528.28;5064455;28;20028;-65
2023/06/03 07:36:58;;;;;;;7.55;2.13;;;;;;;20.30;41.78;100521.78;5062438;28;20483;-64
2023/06/03 07:39:23;;;;;;;7.47;2.45;;;;;;;20.30;41.11;100546.28;5071498;28;20031;-77
2023/06/03 07:41:52;;;;;;;4.03;2.20;;;;;;;20.23;40.06;100523.59;5068650;28;20020;-76
2023/06/03 07:44:39;;;;;;;5.57;1.95;;;;;;;20.32;40.34;100539.63;5066707;28;20028;-77
2023/06/03 07:47:05;;;;;;;9.07;2.22;;;;;;;20.16;40.02;100520.78;5072828;28;20391;-75
2023/06/03 07:49:30;;;;;;;3.60;1.60;;;;;;;20.26;39.91;100537.69;5071008;28;20029;-77
2023/06/03 07:51:57;;;;;;;6.25;2.05;;;;;;;20.33;40.52;100546.75;5083939;28;20028;-77
2023/06/03 07:54:22;;;;;;;4.93;2.42;;;;;;;20.30;40.73;100529.94;5072180;28;20039;-76
2023/06/03 07:56:48;;;;;;;8.13;2.08;;;;;;;20.37;40.98;100541.78;5076310;28;20036;-76
2023/06/03 07:59:15;;;;;;;6.93;1.90;;;;;;;20.43;41.31;100538.28;5070445;28;20107;-77
2023/06/03 08:01:42;;;;;;;5.22;1.55;;;;;;;20.50;41.06;100533.75;5085162;28;20060;-76
2023/06/03 08:04:34;;;;;;;8.48;1.98;;;;;;;20.60;40.52;100545.19;5086952;28;20020;-78
2023/06/03 08:07:02;;;;;;;8.32;2.58;;;;;;;20.59;39.34;100544.34;5076576;28;20040;-77
2023/06/03 08:09:33;;;;;;;5.10;1.95;;;;;;;20.51;38.95;100527.25;5078534;28;20029;-77
2023/06/03 08:12:02;;;;;;;7.68;2.40;;;;;;;20.66;38.72;100552.59;5082883;28;20033;-77
2023/06/03 08:14:29;;;;;;;2.58;1.52;;;;;;;20.68;38.79;100551.34;5076399;28;20028;-77
2023/06/03 08:17:00;;;;;;;4.15;1.70;;;;;;;20.68;39.00;100545.06;5077496;28;20036;-77
2023/06/03 08:19:26;;;;;;;8.93;2.00;;;;;;;20.65;39.24;100534.53;5073665;28;20107;-78
2023/06/03 08:21:52;;;;;;;4.43;1.80;;;;;;;20.73;39.17;100553.50;5074918;28;20016;-77
2023/06/03 08:24:17;;;;;;;17.13;2.22;;;;;;;20.77;39.08;100554.81;5075886;28;20395;-78
2023/06/03 08:26:45;;;;;;;10.05;2.15;;;;;;;20.75;38.38;100555.00;5074894;28;20120;-77
2023/06/03 08:29:11;;;;;;;4.57;1.98;;;;;;;20.73;38.64;100548.06;5063838;28;20417;-77
2023/06/03 08:31:36;;;;;;;6.72;1.88;;;;;;;20.80;37.97;100546.22;5070440;28;20021;-77
2023/06/03 08:34:03;;;;;;;6.60;2.00;;;;;;;20.84;38.19;100550.25;5082616;28;20032;-76
2023/06/03 08:36:29;;;;;;;5.28;2.15;;;;;;;20.83;38.33;100534.94;5077383;28;20056;-77
2023/06/03 08:38:55;;;;;;;4.45;1.90;;;;;;;20.85;38.15;100543.75;5078408;28;20074;-77
2023/06/03 08:41:25;;;;;;;14.88;2.33;;;;;;;20.78;37.63;100540.13;5082162;28;20016;-75
2023/06/03 08:44:01;;;;;;;7.53;2.17;;;;;;;20.82;36.96;100542.25;5089807;28;20392;-77
2023/06/03 08:46:45;;;;;;;16.63;2.28;;;;;;;20.86;36.61;100549.00;5086123;28;20082;-76
2023/06/03 08:49:17;;;;;;;;;;;;;;;20.90;36.21;100561.25;5070806;28;20032;-76
2023/06/03 08:51:45;;;;;;;4.13;2.22;;;;;;;20.91;36.47;100543.81;5075195;28;19962;-68
2023/06/03 08:54:13;;;;;;;9.07;1.52;;;;;;;20.85;36.44;100541.03;5083394;28;20056;-67
2023/06/03 08:56:47;;;;;;;5.55;1.80;;;;;;;20.98;35.88;100557.53;5073321;28;20482;-68
2023/06/03 08:59:19;;;;;;;8.02;2.50;;;;;;;20.94;35.83;100548.06;5075788;28;20069;-67
2023/06/03 09:01:46;;;;;;;5.28;2.10;;;;;;;21.00;35.90;100556.31;5074761;28;20407;-67
2023/06/03 09:04:13;;;;;;;6.95;1.73;;;;;;;20.98;36.38;100560.25;5071289;28;20020;-67
2023/06/03 09:06:44;;;;;;;5.55;1.95;;;;;;;21.05;35.77;100562.03;5089520;28;20110;-68
2023/06/03 09:09:11;;;;;;;4.65;1.70;;;;;;;21.02;36.03;100556.97;5073992;28;20031;-68
2023/06/03 09:11:38;;;;;;;5.70;1.92;;;;;;;21.05;35.96;100562.03;5079123;28;20546;-68
2023/06/03 09:14:04;;;;;;;6.63;2.22;;;;;;;21.10;35.67;100555.97;5077028;28;20473;-67
2023/06/03 09:16:32;;;;;;;5.95;1.90;;;;;;;21.09;35.41;100548.84;5085532;28;20028;-67
2023/06/03 09:18:57;;;;;;;7.47;2.00;;;;;;;21.21;35.44;100561.75;5082318;28;20025;-68
2023/06/03 09:21:23;;;;;;;8.00;2.15;;;;;;;21.15;34.61;100556.25;5068982;28;20089;-69
2023/06/03 09:23:51;;;;;;;8.32;1.88;;;;;;;21.21;33.95;100558.16;5073217;28;20038;-68
2023/06/03 09:26:17;;;;;;;4.78;1.88;;;;;;;21.20;34.69;100557.34;5079127;28;20027;-68
2023/06/03 09:28:43;;;;;;;5.65;2.17;;;;;;;21.15;34.46;100534.44;5078478;28;20019;-68
2023/06/03 09:31:08;;;;;;;3.17;1.70;;;;;;;21.26;34.81;100548.38;5079999;28;20126;-67
2023/06/03 09:33:35;;;;;;;9.05;2.55;;;;;;;21.41;34.71;100562.75;5083853;28;20103;-68
2023/06/03 09:36:15;;;;;;;10.65;2.78;;;;;;;21.36;34.35;100559.78;5076546;28;20035;-68
2023/06/03 09:38:50;;;;;;;4.85;2.10;;;;;;;21.51;34.30;100576.06;5076650;28;20359;-68
2023/06/03 09:41:18;;;;;;;10.70;2.13;;;;;;;21.51;34.45;100565.13;5081211;28;20028;-67
2023/06/03 09:43:57;;;;;;;4.35;1.50;;;;;;;21.54;34.78;100568.28;5069731;28;20040;-68
2023/06/03 09:46:25;;;;;;;3.75;2.03;;;;;;;21.56;34.78;100563.50;5072800;28;20040;-69
2023/06/03 09:48:50;;;;;;;6.18;1.77;;;;;;;21.51;34.31;100554.22;5079969;28;20036;-67
2023/06/03 09:51:16;;;;;;;5.25;1.67;;;;;;;21.59;34.43;100564.97;5067846;28;20051;-68
2023/06/03 09:53:41;;;;;;;4.30;1.80;;;;;;;21.51;34.81;100557.78;5073721;28;20020;-69
2023/06/03 09:56:23;;;;;;;4.80;1.70;;;;;;;21.68;34.95;100564.63;5079840;28;20086;-68
2023/06/03 09:58:51;;;;;;;5.20;2.00;;;;;;;21.78;34.84;100558.84;5076624;28;20034;-67
2023/06/03 10:01:28;;;;;;;10.57;3.22;;;;;;;21.88;34.62;100559.31;5066255;28;20037;-68
2023/06/03 10:04:00;;;;;;;7.75;1.58;;;;;;;21.85;34.67;100571.50;5081244;28;20034;-68
2023/06/03 10:06:26;;;;;;;6.00;1.63;;;;;;;21.83;34.68;100564.56;5066426;28;20166;-69
2023/06/03 10:08:52;;;;;;;8.55;2.13;;;;;;;21.70;34.74;100542.59;5075340;28;20483;-68
2023/06/03 10:11:17;;;;;;;10.20;2.15;;;;;;;21.80;35.39;100565.78;5086605;28;20353;-68
2023/06/03 10:13:44;;;;;;;9.90;2.38;;;;;;;21.78;35.00;100561.56;5072136;28;20041;-69
2023/06/03 10:16:11;;;;;;;5.13;2.10;;;;;;;21.82;35.53;100560.13;5070029;28;20082;-68
2023/06/03 10:18:38;;;;;;;6.60;2.45;;;;;;;21.89;35.61;100570.03;5082981;28;20036;-67
2023/06/03 10:21:11;;;;;;;6.30;2.58;;;;;;;21.97;35.03;100558.09;5084928;28;20056;-67
2023/06/03 10:23:41;;;;;;;10.18;2.60;;;;;;;22.05;35.29;100557.94;5086675;28;20028;-67
2023/06/03 10:26:10;;;;;;;6.00;2.88;;;;;;;22.07;35.67;100559.44;5074169;28;20059;-68
2023/06/03 10:28:37;;;;;;;10.90;3.35;;;;;;;22.15;36.75;100558.38;5072460;28;20486;-67
2023/06/03 10:31:04;;;;;;;5.85;3.35;;;;;;;22.10;36.55;100537.16;5068530;28;20040;-68
2023/06/03 10:33:31;;;;;;;7.35;3.03;;;;;;;22.26;36.39;100546.91;5080455;28;20039;-69
2023/06/03 10:35:57;;;;;;;6.72;3.08;;;;;;;22.19;35.84;100519.53;5074805;28;20031;-68
2023/06/03 10:38:23;;;;;;;5.57;2.50;;;;;;;22.36;36.27;100547.34;5067926;28;20032;-69
2023/06/03 10:40:49;;;;;;;5.72;3.53;;;;;;;22.40;37.30;100547.78;5076375;28;20035;-69
2023/06/03 10:43:15;;;;;;;6.18;3.70;;;;;;;22.41;37.40;100544.84;5072787;28;20028;-68
2023/06/03 10:45:42;;;;;;;4.82;3.25;;;;;;;22.45;36.79;100545.28;5068676;28;20047;-68
2023/06/03 10:48:12;;;;;;;4.65;2.55;;;;;;;22.46;36.69;100557.88;5069061;28;20024;-68
2023/06/03 10:51:23;;;;;;;5.93;3.20;;;;;;;22.40;36.97;100548.63;5079972;28;20474;-69
2023/06/03 10:54:12;;;;;;;5.85;2.80;;;;;;;22.48;36.15;100542.97;5056969;28;20114;-69
2023/06/03 10:56:46;;;;;;;6.18;3.08;;;;;;;22.46;36.10;100545.06;5066862;28;20036;-69
2023/06/03 10:59:17;;;;;;;7.10;2.83;;;;;;;22.35;36.64;100526.53;5069395;28;20044;-70
2023/06/03 11:02:01;;;;;;;4.60;2.83;;;;;;;22.46;36.45;100539.59;5084103;28;20032;-69
2023/06/03 11:04:30;;;;;;;11.98;2.95;;;;;;;22.38;36.12;100524.22;5069038;28;20371;-69
2023/06/03 11:06:57;;;;;;;7.03;2.80;;;;;;;22.50;36.06;100529.97;5073956;28;20028;-68
2023/06/03 11:09:36;;;;;;;5.95;3.38;;;;;;;22.54;36.32;100535.88;5070519;28;20039;-68
2023/06/03 11:12:04;;;;;;;9.18;3.45;;;;;;;22.49;36.78;100525.56;5077582;28;20025;-77
2023/06/03 11:14:29;;;;;;;9.45;3.20;;;;;;;22.59;35.91;100534.19;5073860;28;20088;-68
2023/06/03 11:16:58;;;;;;;7.18;2.75;;;;;;;22.64;36.04;100541.78;5069756;28;20032;-70
2023/06/03 11:19:32;;;;;;;7.00;3.03;;;;;;;22.62;36.27;100525.59;5078739;28;20119;-69
2023/06/03 11:22:04;;;;;;;8.80;3.10;;;;;;;22.65;35.99;100536.09;5064850;28;20074;-69
2023/06/03 11:24:42;;;;;;;4.82;3.20;;;;;;;22.73;35.05;100535.09;5069646;28;20110;-70
2023/06/03 11:27:12;;;;;;;8.10;3.35;;;;;;;22.72;34.87;100534.22;5064996;28;20036;-70
2023/06/03 11:29:48;;;;;;;5.07;2.90;;;;;;;22.74;34.86;100532.13;5069377;28;20028;-69